createdAt,value
2016-12-07T11:26:36.387Z,9.16
2016-12-07T11:27:16.894Z,9.35
2016-12-07T11:27:57.364Z,9.6
2016-12-07T11:28:37.849Z,9.91
2016-12-07T11:29:18.374Z,9.98
2016-12-07T11:29:58.899Z,10.2
2016-12-07T11:30:39.377Z,10.46
2016-12-07T11:31:19.900Z,10.72
2016-12-07T11:32:00.390Z,10.73
2016-12-07T11:32:40.882Z,11.02
2016-12-07T11:33:21.373Z,11.17
2016-12-07T11:34:01.952Z,11.38
2016-12-07T11:34:42.423Z,11.66
2016-12-07T11:35:22.962Z,11.64
2016-12-07T11:36:03.448Z,11.81
2016-12-07T11:36:43.941Z,12.04
2016-12-07T11:37:24.438Z,12.08
2016-12-07T11:38:04.937Z,12.36
2016-12-07T11:38:45.445Z,12.46
2016-12-07T11:39:25.948Z,12.61
2016-12-07T11:40:06.451Z,12.81
2016-12-07T11:40:46.942Z,12.77
2016-12-07T11:41:27.429Z,13.01
2016-12-07T11:42:07.933Z,13.1
2016-12-07T11:48:55.021Z,16.25
2016-12-07T11:49:35.509Z,16.65
2016-12-07T11:50:16.216Z,16.98
2016-12-07T11:50:56.681Z,17.18
2016-12-07T11:51:37.183Z,17.42
2016-12-07T11:52:24.786Z,17.71
2016-12-07T11:53:05.292Z,17.86
2016-12-07T11:53:45.815Z,18.04
2016-12-07T11:54:26.458Z,18.26
2016-12-07T11:55:07.011Z,18.42
2016-12-07T11:55:47.495Z,18.44
2016-12-07T11:56:28.044Z,18.66
2016-12-07T11:57:08.563Z,18.82
2016-12-07T11:57:49.106Z,18.97
2016-12-07T11:58:29.609Z,19.09
2016-12-07T11:59:10.096Z,19.2
2016-12-07T11:59:50.601Z,19.31
2016-12-07T12:00:31.119Z,19.46
2016-12-07T12:01:11.640Z,19.61
2016-12-07T12:01:52.148Z,19.75
2016-12-07T12:02:32.668Z,19.82
2016-12-07T12:03:13.183Z,19.94
2016-12-07T12:03:53.692Z,20.02
2016-12-07T12:04:34.179Z,20.1
2016-12-07T12:05:29.680Z,20.27
2016-12-07T12:06:10.175Z,20.35
2016-12-07T12:06:50.671Z,20.41
2016-12-07T12:07:31.197Z,20.44
2016-12-07T12:08:11.690Z,20.56
2016-12-07T12:08:52.197Z,20.6
2016-12-07T12:09:32.710Z,20.68
2016-12-07T12:10:13.209Z,20.69
2016-12-07T12:10:53.715Z,20.71
2016-12-07T12:11:34.217Z,20.72
2016-12-07T12:12:14.732Z,20.83
2016-12-07T12:12:55.245Z,20.82
2016-12-07T12:13:35.755Z,20.85
2016-12-07T12:14:16.261Z,20.93
2016-12-07T12:14:56.769Z,20.96
2016-12-07T12:15:37.283Z,20.9
2016-12-07T12:16:17.809Z,21
2016-12-07T12:16:58.314Z,21.19
2016-12-07T12:17:38.814Z,21.22
2016-12-07T12:18:19.326Z,21.22
2016-12-07T12:18:59.829Z,21.31
2016-12-07T12:19:40.339Z,21.4
2016-12-07T12:20:20.844Z,21.4
2016-12-07T12:21:01.362Z,21.42
2016-12-07T12:21:41.870Z,21.48
2016-12-07T12:22:22.394Z,21.56
2016-12-07T12:23:02.904Z,21.66
2016-12-07T12:23:43.412Z,21.7
2016-12-07T12:24:23.947Z,21.85
2016-12-07T12:25:04.447Z,21.91
2016-12-07T12:25:44.989Z,21.85
2016-12-07T12:26:25.511Z,21.96
2016-12-07T12:27:06.050Z,21.93
2016-12-07T12:27:46.568Z,22.04
2016-12-07T12:28:27.087Z,22.08
2016-12-07T12:29:07.582Z,22.12
2016-12-07T12:29:48.091Z,22.2
2016-12-07T12:30:28.602Z,22.21
2016-12-07T12:31:09.102Z,22.2
2016-12-07T12:31:49.623Z,22.3
2016-12-07T12:32:30.281Z,22.33
2016-12-07T12:33:10.745Z,22.35
2016-12-07T12:33:51.241Z,22.31
2016-12-07T12:34:31.758Z,22.33
2016-12-07T12:35:12.275Z,22.38
2016-12-07T12:35:52.776Z,22.45
2016-12-07T12:36:33.313Z,22.42
2016-12-07T12:37:13.824Z,22.39
2016-12-07T12:37:54.307Z,22.49
2016-12-07T12:38:34.825Z,22.39
2016-12-07T12:39:15.328Z,22.39
